sensor_id;sensor_type;location;lat;lon;timestamp;temperature;humidity
20487;DHT22;10402;49.012;8.370;2023-04-15T00:01:03;8.50;59.40
20487;DHT22;10402;49.012;8.370;2023-04-15T00:03:30;8.50;59.50
20487;DHT22;10402;49.012;8.370;2023-04-15T00:05:56;8.40;59.60
20487;DHT22;10402;49.012;8.370;2023-04-15T00:08:22;8.40;59.70
20487;DHT22;10402;49.012;8.370;2023-04-15T00:10:48;8.30;59.80
20487;DHT22;10402;49.012;8.370;2023-04-15T00:13:13;8.30;59.90
20487;DHT22;10402;49.012;8.370;2023-04-15T00:15:39;8.30;60.00
20487;DHT22;10402;49.012;8.370;2023-04-15T00:18:05;8.30;60.80
20487;DHT22;10402;49.012;8.370;2023-04-15T00:20:32;8.30;60.10
20487;DHT22;10402;49.012;8.370;2023-04-15T00:22:58;8.30;60.00
20487;DHT22;10402;49.012;8.370;2023-04-15T00:25:25;8.30;60.00
20487;DHT22;10402;49.012;8.370;2023-04-15T00:27:50;8.30;60.10
20487;DHT22;10402;49.012;8.370;2023-04-15T00:30:16;8.30;60.20
20487;DHT22;10402;49.012;8.370;2023-04-15T00:32:41;8.20;60.20
20487;DHT22;10402;49.012;8.370;2023-04-15T00:35:07;8.20;60.30
20487;DHT22;10402;49.012;8.370;2023-04-15T00:37:33;8.20;60.40
20487;DHT22;10402;49.012;8.370;2023-04-15T00:40:00;8.20;60.60
20487;DHT22;10402;49.012;8.370;2023-04-15T00:42:25;8.20;60.60
20487;DHT22;10402;49.012;8.370;2023-04-15T00:44:52;8.30;60.60
20487;DHT22;10402;49.012;8.370;2023-04-15T00:47:18;8.30;60.60
20487;DHT22;10402;49.012;8.370;2023-04-15T00:49:44;8.20;60.60
20487;DHT22;10402;49.012;8.370;2023-04-15T00:52:10;8.20;60.80
20487;DHT22;10402;49.012;8.370;2023-04-15T00:54:35;8.20;61.00
20487;DHT22;10402;49.012;8.370;2023-04-15T00:57:04;8.20;61.20
20487;DHT22;10402;49.012;8.370;2023-04-15T00:59:32;8.20;61.30
20487;DHT22;10402;49.012;8.370;2023-04-15T01:01:58;8.20;61.30
20487;DHT22;10402;49.012;8.370;2023-04-15T01:04:24;8.20;61.30
20487;DHT22;10402;49.012;8.370;2023-04-15T01:06:49;8.20;61.30
20487;DHT22;10402;49.012;8.370;2023-04-15T01:09:16;8.20;61.30
20487;DHT22;10402;49.012;8.370;2023-04-15T01:11:41;8.20;61.30
20487;DHT22;10402;49.012;8.370;2023-04-15T01:14:08;8.10;61.30
20487;DHT22;10402;49.012;8.370;2023-04-15T01:16:35;8.00;61.70
20487;DHT22;10402;49.012;8.370;2023-04-15T01:19:01;7.90;61.90
20487;DHT22;10402;49.012;8.370;2023-04-15T01:21:26;7.90;62.20
20487;DHT22;10402;49.012;8.370;2023-04-15T01:23:52;7.80;62.20
20487;DHT22;10402;49.012;8.370;2023-04-15T01:26:19;7.80;62.40
20487;DHT22;10402;49.012;8.370;2023-04-15T01:28:46;7.80;62.50
20487;DHT22;10402;49.012;8.370;2023-04-15T01:31:13;7.70;62.50
20487;DHT22;10402;49.012;8.370;2023-04-15T01:33:40;7.70;62.70
20487;DHT22;10402;49.012;8.370;2023-04-15T01:36:07;7.70;62.70
20487;DHT22;10402;49.012;8.370;2023-04-15T01:38:34;7.70;62.70
20487;DHT22;10402;49.012;8.370;2023-04-15T01:41:00;7.60;62.70
20487;DHT22;10402;49.012;8.370;2023-04-15T01:43:26;7.60;62.80
20487;DHT22;10402;49.012;8.370;2023-04-15T01:45:53;7.60;62.90
20487;DHT22;10402;49.012;8.370;2023-04-15T01:48:18;7.60;63.10
20487;DHT22;10402;49.012;8.370;2023-04-15T01:50:44;7.50;63.00
20487;DHT22;10402;49.012;8.370;2023-04-15T01:53:10;7.50;63.20
20487;DHT22;10402;49.012;8.370;2023-04-15T01:55:36;7.50;63.20
20487;DHT22;10402;49.012;8.370;2023-04-15T01:58:02;7.50;63.30
20487;DHT22;10402;49.012;8.370;2023-04-15T02:00:28;7.50;63.50
20487;DHT22;10402;49.012;8.370;2023-04-15T02:02:54;7.40;63.40
20487;DHT22;10402;49.012;8.370;2023-04-15T02:05:19;7.40;63.60
20487;DHT22;10402;49.012;8.370;2023-04-15T02:07:45;7.30;64.30
20487;DHT22;10402;49.012;8.370;2023-04-15T02:10:10;7.30;63.90
20487;DHT22;10402;49.012;8.370;2023-04-15T02:12:38;7.30;64.10
20487;DHT22;10402;49.012;8.370;2023-04-15T02:15:04;7.30;64.30
20487;DHT22;10402;49.012;8.370;2023-04-15T02:17:32;7.30;64.30
20487;DHT22;10402;49.012;8.370;2023-04-15T02:19:59;7.40;64.30
20487;DHT22;10402;49.012;8.370;2023-04-15T02:22:25;7.30;65.00
20487;DHT22;10402;49.012;8.370;2023-04-15T02:24:50;7.30;64.40
20487;DHT22;10402;49.012;8.370;2023-04-15T02:27:17;7.30;64.40
20487;DHT22;10402;49.012;8.370;2023-04-15T02:29:43;7.30;64.40
20487;DHT22;10402;49.012;8.370;2023-04-15T02:32:10;7.20;64.60
20487;DHT22;10402;49.012;8.370;2023-04-15T02:34:36;7.30;64.80
20487;DHT22;10402;49.012;8.370;2023-04-15T02:37:07;7.30;64.80
20487;DHT22;10402;49.012;8.370;2023-04-15T02:39:33;7.30;65.50
20487;DHT22;10402;49.012;8.370;2023-04-15T02:41:59;7.30;64.70
20487;DHT22;10402;49.012;8.370;2023-04-15T02:44:28;7.30;64.80
20487;DHT22;10402;49.012;8.370;2023-04-15T02:46:53;7.20;64.90
20487;DHT22;10402;49.012;8.370;2023-04-15T02:49:22;7.20;64.90
20487;DHT22;10402;49.012;8.370;2023-04-15T02:51:47;7.20;65.00
20487;DHT22;10402;49.012;8.370;2023-04-15T02:54:18;7.20;65.00
20487;DHT22;10402;49.012;8.370;2023-04-15T02:56:44;7.20;65.00
20487;DHT22;10402;49.012;8.370;2023-04-15T02:59:10;7.30;65.10
20487;DHT22;10402;49.012;8.370;2023-04-15T03:01:36;7.30;65.20
20487;DHT22;10402;49.012;8.370;2023-04-15T03:04:02;7.30;65.20
20487;DHT22;10402;49.012;8.370;2023-04-15T03:06:27;7.30;65.20
20487;DHT22;10402;49.012;8.370;2023-04-15T03:08:53;7.40;65.30
20487;DHT22;10402;49.012;8.370;2023-04-15T03:11:19;7.40;65.20
20487;DHT22;10402;49.012;8.370;2023-04-15T03:13:44;7.40;66.00
20487;DHT22;10402;49.012;8.370;2023-04-15T03:16:10;7.40;65.20
20487;DHT22;10402;49.012;8.370;2023-04-15T03:18:35;7.30;65.20
20487;DHT22;10402;49.012;8.370;2023-04-15T03:21:02;7.20;65.40
20487;DHT22;10402;49.012;8.370;2023-04-15T03:23:27;7.10;65.60
20487;DHT22;10402;49.012;8.370;2023-04-15T03:25:53;7.00;65.90
20487;DHT22;10402;49.012;8.370;2023-04-15T03:28:22;7.00;66.00
20487;DHT22;10402;49.012;8.370;2023-04-15T03:30:48;7.00;66.00
20487;DHT22;10402;49.012;8.370;2023-04-15T03:33:13;7.00;66.10
20487;DHT22;10402;49.012;8.370;2023-04-15T03:35:39;7.00;66.20
20487;DHT22;10402;49.012;8.370;2023-04-15T03:38:04;7.00;66.20
20487;DHT22;10402;49.012;8.370;2023-04-15T03:40:30;7.10;66.30
20487;DHT22;10402;49.012;8.370;2023-04-15T03:42:56;7.00;66.20
20487;DHT22;10402;49.012;8.370;2023-04-15T03:45:21;7.10;67.00
20487;DHT22;10402;49.012;8.370;2023-04-15T03:47:47;7.10;66.30
20487;DHT22;10402;49.012;8.370;2023-04-15T03:50:14;7.10;66.30
20487;DHT22;10402;49.012;8.370;2023-04-15T03:52:39;7.10;66.30
20487;DHT22;10402;49.012;8.370;2023-04-15T03:55:05;7.10;66.40
20487;DHT22;10402;49.012;8.370;2023-04-15T03:57:31;7.10;66.60
20487;DHT22;10402;49.012;8.370;2023-04-15T03:59:56;7.10;66.60
20487;DHT22;10402;49.012;8.370;2023-04-15T04:02:22;7.10;66.60
20487;DHT22;10402;49.012;8.370;2023-04-15T04:04:48;7.10;66.80
20487;DHT22;10402;49.012;8.370;2023-04-15T04:07:16;7.00;66.80
20487;DHT22;10402;49.012;8.370;2023-04-15T04:09:42;7.00;67.00
20487;DHT22;10402;49.012;8.370;2023-04-15T04:12:08;6.90;67.10
20487;DHT22;10402;49.012;8.370;2023-04-15T04:14:33;6.80;67.10
20487;DHT22;10402;49.012;8.370;2023-04-15T04:16:59;6.80;67.40
20487;DHT22;10402;49.012;8.370;2023-04-15T04:19:24;6.70;67.60
20487;DHT22;10402;49.012;8.370;2023-04-15T04:21:50;6.70;67.60
20487;DHT22;10402;49.012;8.370;2023-04-15T04:24:16;6.80;67.60
20487;DHT22;10402;49.012;8.370;2023-04-15T04:26:41;6.70;67.50
20487;DHT22;10402;49.012;8.370;2023-04-15T04:29:07;6.70;67.70
20487;DHT22;10402;49.012;8.370;2023-04-15T04:31:33;6.70;67.60
20487;DHT22;10402;49.012;8.370;2023-04-15T04:33:58;6.60;67.70
20487;DHT22;10402;49.012;8.370;2023-04-15T04:36:24;6.50;67.70
20487;DHT22;10402;49.012;8.370;2023-04-15T04:38:50;6.50;68.00
20487;DHT22;10402;49.012;8.370;2023-04-15T04:41:16;6.40;67.90
20487;DHT22;10402;49.012;8.370;2023-04-15T04:43:42;6.40;68.10
20487;DHT22;10402;49.012;8.370;2023-04-15T04:46:08;6.40;68.30
20487;DHT22;10402;49.012;8.370;2023-04-15T04:48:34;6.40;68.20
20487;DHT22;10402;49.012;8.370;2023-04-15T04:51:00;6.40;68.20
20487;DHT22;10402;49.012;8.370;2023-04-15T04:53:25;6.40;68.30
20487;DHT22;10402;49.012;8.370;2023-04-15T04:55:52;6.40;68.20
20487;DHT22;10402;49.012;8.370;2023-04-15T04:58:18;6.40;68.20
20487;DHT22;10402;49.012;8.370;2023-04-15T05:00:43;6.40;68.30
20487;DHT22;10402;49.012;8.370;2023-04-15T05:03:09;6.40;68.40
20487;DHT22;10402;49.012;8.370;2023-04-15T05:05:35;6.50;68.30
20487;DHT22;10402;49.012;8.370;2023-04-15T05:08:01;6.50;68.30
20487;DHT22;10402;49.012;8.370;2023-04-15T05:10:27;6.50;68.20
20487;DHT22;10402;49.012;8.370;2023-04-15T05:12:52;6.50;68.10
20487;DHT22;10402;49.012;8.370;2023-04-15T05:15:18;6.60;68.10
20487;DHT22;10402;49.012;8.370;2023-04-15T05:17:43;6.50;68.10
20487;DHT22;10402;49.012;8.370;2023-04-15T05:20:09;6.60;68.30
20487;DHT22;10402;49.012;8.370;2023-04-15T05:22:36;6.60;68.30
20487;DHT22;10402;49.012;8.370;2023-04-15T05:25:01;6.60;68.20
20487;DHT22;10402;49.012;8.370;2023-04-15T05:27:27;6.60;68.40
20487;DHT22;10402;49.012;8.370;2023-04-15T05:29:53;6.60;68.40
20487;DHT22;10402;49.012;8.370;2023-04-15T05:32:18;6.50;68.40
20487;DHT22;10402;49.012;8.370;2023-04-15T05:34:44;6.50;68.60
20487;DHT22;10402;49.012;8.370;2023-04-15T05:37:09;6.50;68.80
20487;DHT22;10402;49.012;8.370;2023-04-15T05:39:35;6.60;68.90
20487;DHT22;10402;49.012;8.370;2023-04-15T05:42:01;6.60;68.90
20487;DHT22;10402;49.012;8.370;2023-04-15T05:44:26;6.60;68.80
20487;DHT22;10402;49.012;8.370;2023-04-15T05:46:52;6.70;68.80
20487;DHT22;10402;49.012;8.370;2023-04-15T05:49:17;6.70;68.80
20487;DHT22;10402;49.012;8.370;2023-04-15T05:51:43;6.70;68.80
20487;DHT22;10402;49.012;8.370;2023-04-15T05:54:08;6.70;68.80
20487;DHT22;10402;49.012;8.370;2023-04-15T05:56:34;6.80;69.00
20487;DHT22;10402;49.012;8.370;2023-04-15T05:58:59;6.80;69.00
20487;DHT22;10402;49.012;8.370;2023-04-15T06:01:26;6.90;69.00
20487;DHT22;10402;49.012;8.370;2023-04-15T06:03:51;7.00;69.00
20487;DHT22;10402;49.012;8.370;2023-04-15T06:06:17;7.00;68.90
20487;DHT22;10402;49.012;8.370;2023-04-15T06:08:43;7.10;68.90
20487;DHT22;10402;49.012;8.370;2023-04-15T06:11:08;7.10;68.70
20487;DHT22;10402;49.012;8.370;2023-04-15T06:13:34;7.20;68.90
20487;DHT22;10402;49.012;8.370;2023-04-15T06:15:59;7.30;68.90
20487;DHT22;10402;49.012;8.370;2023-04-15T06:18:25;7.30;68.50
20487;DHT22;10402;49.012;8.370;2023-04-15T06:20:50;7.40;68.60
20487;DHT22;10402;49.012;8.370;2023-04-15T06:23:16;7.50;68.50
20487;DHT22;10402;49.012;8.370;2023-04-15T06:25:42;7.60;68.40
20487;DHT22;10402;49.012;8.370;2023-04-15T06:28:08;7.60;68.30
20487;DHT22;10402;49.012;8.370;2023-04-15T06:30:33;7.70;68.30
20487;DHT22;10402;49.012;8.370;2023-04-15T06:33:00;7.70;68.20
20487;DHT22;10402;49.012;8.370;2023-04-15T06:35:27;7.80;68.20
20487;DHT22;10402;49.012;8.370;2023-04-15T06:37:53;7.90;68.20
20487;DHT22;10402;49.012;8.370;2023-04-15T06:40:18;8.00;68.10
20487;DHT22;10402;49.012;8.370;2023-04-15T06:42:44;8.00;68.00
20487;DHT22;10402;49.012;8.370;2023-04-15T06:45:10;8.10;68.00
20487;DHT22;10402;49.012;8.370;2023-04-15T06:47:36;8.10;67.90
20487;DHT22;10402;49.012;8.370;2023-04-15T06:50:01;8.10;68.00
20487;DHT22;10402;49.012;8.370;2023-04-15T06:52:28;8.10;68.70
20487;DHT22;10402;49.012;8.370;2023-04-15T06:54:53;8.20;67.90
20487;DHT22;10402;49.012;8.370;2023-04-15T06:57:19;8.20;67.80
20487;DHT22;10402;49.012;8.370;2023-04-15T06:59:44;8.30;67.70
20487;DHT22;10402;49.012;8.370;2023-04-15T07:02:12;8.40;67.60
20487;DHT22;10402;49.012;8.370;2023-04-15T07:04:38;8.40;67.40
20487;DHT22;10402;49.012;8.370;2023-04-15T07:07:04;8.50;67.50
20487;DHT22;10402;49.012;8.370;2023-04-15T07:09:30;8.60;67.20
20487;DHT22;10402;49.012;8.370;2023-04-15T07:11:56;8.70;67.10
20487;DHT22;10402;49.012;8.370;2023-04-15T07:14:22;8.70;67.00
20487;DHT22;10402;49.012;8.370;2023-04-15T07:16:47;8.70;67.00
20487;DHT22;10402;49.012;8.370;2023-04-15T07:19:13;8.70;67.00
20487;DHT22;10402;49.012;8.370;2023-04-15T07:21:38;8.80;67.10
20487;DHT22;10402;49.012;8.370;2023-04-15T07:24:04;8.80;67.20
20487;DHT22;10402;49.012;8.370;2023-04-15T07:26:30;8.80;67.20
20487;DHT22;10402;49.012;8.370;2023-04-15T07:28:55;8.80;67.30
20487;DHT22;10402;49.012;8.370;2023-04-15T07:31:21;8.80;67.30
20487;DHT22;10402;49.012;8.370;2023-04-15T07:33:46;8.80;67.50
20487;DHT22;10402;49.012;8.370;2023-04-15T07:36:12;8.80;67.50
20487;DHT22;10402;49.012;8.370;2023-04-15T07:38:38;8.80;67.50
20487;DHT22;10402;49.012;8.370;2023-04-15T07:41:04;8.80;67.50
20487;DHT22;10402;49.012;8.370;2023-04-15T07:43:30;8.80;67.70
20487;DHT22;10402;49.012;8.370;2023-04-15T07:45:55;8.90;67.70
20487;DHT22;10402;49.012;8.370;2023-04-15T07:48:21;9.00;67.50
20487;DHT22;10402;49.012;8.370;2023-04-15T07:50:46;9.00;67.20
20487;DHT22;10402;49.012;8.370;2023-04-15T07:53:12;8.90;67.10
20487;DHT22;10402;49.012;8.370;2023-04-15T07:55:38;9.00;67.30
20487;DHT22;10402;49.012;8.370;2023-04-15T07:58:04;9.00;67.30
20487;DHT22;10402;49.012;8.370;2023-04-15T08:00:30;9.00;67.30
20487;DHT22;10402;49.012;8.370;2023-04-15T08:02:56;9.10;67.30
20487;DHT22;10402;49.012;8.370;2023-04-15T08:05:23;9.30;67.30
20487;DHT22;10402;49.012;8.370;2023-04-15T08:07:50;9.40;67.00
20487;DHT22;10402;49.012;8.370;2023-04-15T08:10:16;9.50;66.90
20487;DHT22;10402;49.012;8.370;2023-04-15T08:12:42;9.50;66.60
20487;DHT22;10402;49.012;8.370;2023-04-15T08:15:08;9.60;66.70
20487;DHT22;10402;49.012;8.370;2023-04-15T08:17:34;9.70;66.60
20487;DHT22;10402;49.012;8.370;2023-04-15T08:19:59;9.90;66.50
20487;DHT22;10402;49.012;8.370;2023-04-15T08:22:25;10.00;65.20
20487;DHT22;10402;49.012;8.370;2023-04-15T08:24:50;10.10;65.00
20487;DHT22;10402;49.012;8.370;2023-04-15T08:27:16;10.30;64.80
20487;DHT22;10402;49.012;8.370;2023-04-15T08:29:42;10.40;64.60
20487;DHT22;10402;49.012;8.370;2023-04-15T08:32:07;10.50;64.20
20487;DHT22;10402;49.012;8.370;2023-04-15T08:34:34;10.50;64.10
20487;DHT22;10402;49.012;8.370;2023-04-15T08:36:59;10.60;64.00
20487;DHT22;10402;49.012;8.370;2023-04-15T08:39:25;10.60;64.00
20487;DHT22;10402;49.012;8.370;2023-04-15T08:41:58;10.70;64.10
20487;DHT22;10402;49.012;8.370;2023-04-15T08:44:25;10.80;63.90
20487;DHT22;10402;49.012;8.370;2023-04-15T08:46:54;10.90;63.80
20487;DHT22;10402;49.012;8.370;2023-04-15T08:49:21;11.00;63.70
20487;DHT22;10402;49.012;8.370;2023-04-15T08:51:49;11.10;63.40
20487;DHT22;10402;49.012;8.370;2023-04-15T08:54:15;11.10;63.10
20487;DHT22;10402;49.012;8.370;2023-04-15T08:56:41;11.20;64.00
20487;DHT22;10402;49.012;8.370;2023-04-15T08:59:06;11.20;63.20
20487;DHT22;10402;49.012;8.370;2023-04-15T09:01:33;11.30;63.00
20487;DHT22;10402;49.012;8.370;2023-04-15T09:03:58;11.40;62.90
20487;DHT22;10402;49.012;8.370;2023-04-15T09:06:25;11.40;62.80
20487;DHT22;10402;49.012;8.370;2023-04-15T09:08:51;11.50;62.60
20487;DHT22;10402;49.012;8.370;2023-04-15T09:11:17;11.60;62.70
20487;DHT22;10402;49.012;8.370;2023-04-15T09:13:44;11.70;62.60
20487;DHT22;10402;49.012;8.370;2023-04-15T09:16:09;11.70;62.40
20487;DHT22;10402;49.012;8.370;2023-04-15T09:18:37;11.80;62.40
20487;DHT22;10402;49.012;8.370;2023-04-15T09:21:14;11.90;62.50
20487;DHT22;10402;49.012;8.370;2023-04-15T09:23:52;11.90;62.20
20487;DHT22;10402;49.012;8.370;2023-04-15T09:26:18;12.00;62.30
20487;DHT22;10402;49.012;8.370;2023-04-15T09:28:44;12.00;62.30
20487;DHT22;10402;49.012;8.370;2023-04-15T09:31:09;12.10;62.20
20487;DHT22;10402;49.012;8.370;2023-04-15T09:33:35;12.10;62.10
20487;DHT22;10402;49.012;8.370;2023-04-15T09:36:18;12.20;62.10
20487;DHT22;10402;49.012;8.370;2023-04-15T09:38:57;12.20;62.20
20487;DHT22;10402;49.012;8.370;2023-04-15T09:41:23;12.30;62.20
20487;DHT22;10402;49.012;8.370;2023-04-15T09:43:49;12.40;62.20
20487;DHT22;10402;49.012;8.370;2023-04-15T09:46:14;12.40;62.20
20487;DHT22;10402;49.012;8.370;2023-04-15T09:48:40;12.50;62.30
20487;DHT22;10402;49.012;8.370;2023-04-15T09:51:06;12.50;62.20
20487;DHT22;10402;49.012;8.370;2023-04-15T09:53:34;12.60;62.40
20487;DHT22;10402;49.012;8.370;2023-04-15T09:56:00;12.70;62.40
20487;DHT22;10402;49.012;8.370;2023-04-15T09:58:31;12.70;62.30
20487;DHT22;10402;49.012;8.370;2023-04-15T10:00:59;12.80;62.30
20487;DHT22;10402;49.012;8.370;2023-04-15T10:03:28;12.70;62.30
20487;DHT22;10402;49.012;8.370;2023-04-15T10:05:55;12.80;62.40
20487;DHT22;10402;49.012;8.370;2023-04-15T10:08:26;12.80;62.40
20487;DHT22;10402;49.012;8.370;2023-04-15T10:10:52;12.90;62.50
20487;DHT22;10402;49.012;8.370;2023-04-15T10:13:20;13.00;62.40
20487;DHT22;10402;49.012;8.370;2023-04-15T10:16:10;13.00;62.30
20487;DHT22;10402;49.012;8.370;2023-04-15T10:18:41;13.00;62.40
20487;DHT22;10402;49.012;8.370;2023-04-15T10:21:07;13.10;62.30
20487;DHT22;10402;49.012;8.370;2023-04-15T10:23:33;13.10;61.90
20487;DHT22;10402;49.012;8.370;2023-04-15T10:25:59;13.10;61.70
20487;DHT22;10402;49.012;8.370;2023-04-15T10:28:25;13.10;61.40
20487;DHT22;10402;49.012;8.370;2023-04-15T10:30:52;13.10;61.50
20487;DHT22;10402;49.012;8.370;2023-04-15T10:33:20;13.10;61.20
20487;DHT22;10402;49.012;8.370;2023-04-15T10:35:47;13.20;61.40
20487;DHT22;10402;49.012;8.370;2023-04-15T10:38:33;13.20;61.20
20487;DHT22;10402;49.012;8.370;2023-04-15T10:43:48;13.30;60.90
20487;DHT22;10402;49.012;8.370;2023-04-15T10:46:23;13.30;60.70
20487;DHT22;10402;49.012;8.370;2023-04-15T10:48:51;13.40;60.80
20487;DHT22;10402;49.012;8.370;2023-04-15T10:51:26;13.40;60.50
20487;DHT22;10402;49.012;8.370;2023-04-15T10:53:56;13.50;60.50
20487;DHT22;10402;49.012;8.370;2023-04-15T10:56:23;13.50;60.30
20487;DHT22;10402;49.012;8.370;2023-04-15T10:58:48;13.60;61.00
20487;DHT22;10402;49.012;8.370;2023-04-15T11:01:13;13.70;60.20
20487;DHT22;10402;49.012;8.370;2023-04-15T11:03:42;13.80;60.10
20487;DHT22;10402;49.012;8.370;2023-04-15T11:06:08;13.90;60.10
20487;DHT22;10402;49.012;8.370;2023-04-15T11:08:56;14.00;59.90
20487;DHT22;10402;49.012;8.370;2023-04-15T11:11:49;14.00;59.90
20487;DHT22;10402;49.012;8.370;2023-04-15T11:14:14;14.10;59.70
20487;DHT22;10402;49.012;8.370;2023-04-15T11:16:43;14.20;59.40
20487;DHT22;10402;49.012;8.370;2023-04-15T11:19:12;14.20;59.20
20487;DHT22;10402;49.012;8.370;2023-04-15T11:21:37;14.30;59.10
20487;DHT22;10402;49.012;8.370;2023-04-15T11:24:03;14.40;59.00
20487;DHT22;10402;49.012;8.370;2023-04-15T11:26:29;14.50;58.90
20487;DHT22;10402;49.012;8.370;2023-04-15T11:28:55;14.40;58.70
20487;DHT22;10402;49.012;8.370;2023-04-15T11:31:21;14.50;59.00
20487;DHT22;10402;49.012;8.370;2023-04-15T11:33:57;14.50;58.30
20487;DHT22;10402;49.012;8.370;2023-04-15T11:36:28;14.40;57.50
20487;DHT22;10402;49.012;8.370;2023-04-15T11:38:54;14.40;57.40
20487;DHT22;10402;49.012;8.370;2023-04-15T11:41:21;14.50;56.70
20487;DHT22;10402;49.012;8.370;2023-04-15T11:43:47;14.50;56.80
20487;DHT22;10402;49.012;8.370;2023-04-15T11:46:12;14.50;56.70
20487;DHT22;10402;49.012;8.370;2023-04-15T11:48:41;14.60;56.80
20487;DHT22;10402;49.012;8.370;2023-04-15T11:51:08;14.60;56.70
20487;DHT22;10402;49.012;8.370;2023-04-15T11:53:43;14.70;56.80
20487;DHT22;10402;49.012;8.370;2023-04-15T11:56:10;14.80;56.90
20487;DHT22;10402;49.012;8.370;2023-04-15T11:58:37;14.80;55.80
20487;DHT22;10402;49.012;8.370;2023-04-15T12:01:04;14.80;55.90
20487;DHT22;10402;49.012;8.370;2023-04-15T12:06:22;14.80;56.00
20487;DHT22;10402;49.012;8.370;2023-04-15T12:09:06;14.90;56.00
20487;DHT22;10402;49.012;8.370;2023-04-15T12:11:46;14.90;56.00
20487;DHT22;10402;49.012;8.370;2023-04-15T12:14:33;15.00;55.40
20487;DHT22;10402;49.012;8.370;2023-04-15T12:16:59;14.90;54.70
20487;DHT22;10402;49.012;8.370;2023-04-15T12:19:37;15.00;54.70
20487;DHT22;10402;49.012;8.370;2023-04-15T12:22:05;15.00;54.30
20487;DHT22;10402;49.012;8.370;2023-04-15T12:24:32;15.00;53.60
20487;DHT22;10402;49.012;8.370;2023-04-15T12:27:03;15.00;54.00
20487;DHT22;10402;49.012;8.370;2023-04-15T12:29:29;15.10;54.10
20487;DHT22;10402;49.012;8.370;2023-04-15T12:31:57;15.20;53.90
20487;DHT22;10402;49.012;8.370;2023-04-15T12:34:31;15.30;53.60
20487;DHT22;10402;49.012;8.370;2023-04-15T12:36:58;15.30;53.30
20487;DHT22;10402;49.012;8.370;2023-04-15T12:39:25;15.30;53.20
20487;DHT22;10402;49.012;8.370;2023-04-15T12:41:52;15.30;53.30
20487;DHT22;10402;49.012;8.370;2023-04-15T12:44:18;15.30;52.70
20487;DHT22;10402;49.012;8.370;2023-04-15T12:46:44;15.30;52.40
20487;DHT22;10402;49.012;8.370;2023-04-15T12:49:10;15.40;52.20
20487;DHT22;10402;49.012;8.370;2023-04-15T12:51:36;15.40;51.80
20487;DHT22;10402;49.012;8.370;2023-04-15T12:54:01;15.50;51.80
20487;DHT22;10402;49.012;8.370;2023-04-15T12:56:27;15.50;52.00
20487;DHT22;10402;49.012;8.370;2023-04-15T12:58:53;15.50;52.00
20487;DHT22;10402;49.012;8.370;2023-04-15T13:01:19;15.50;52.00
20487;DHT22;10402;49.012;8.370;2023-04-15T13:03:44;15.50;52.00
20487;DHT22;10402;49.012;8.370;2023-04-15T13:06:10;15.50;51.70
20487;DHT22;10402;49.012;8.370;2023-04-15T13:08:36;15.50;51.80
20487;DHT22;10402;49.012;8.370;2023-04-15T13:11:02;15.50;52.00
20487;DHT22;10402;49.012;8.370;2023-04-15T13:13:28;15.50;51.60
20487;DHT22;10402;49.012;8.370;2023-04-15T13:15:53;15.50;51.10
20487;DHT22;10402;49.012;8.370;2023-04-15T13:18:19;15.40;51.10
20487;DHT22;10402;49.012;8.370;2023-04-15T13:20:44;15.50;51.30
20487;DHT22;10402;49.012;8.370;2023-04-15T13:23:10;15.40;50.90
20487;DHT22;10402;49.012;8.370;2023-04-15T13:25:35;15.40;50.90
20487;DHT22;10402;49.012;8.370;2023-04-15T13:28:01;15.40;50.90
20487;DHT22;10402;49.012;8.370;2023-04-15T13:30:27;15.30;51.10
20487;DHT22;10402;49.012;8.370;2023-04-15T13:32:53;15.20;51.20
20487;DHT22;10402;49.012;8.370;2023-04-15T13:35:19;15.20;51.40
20487;DHT22;10402;49.012;8.370;2023-04-15T13:37:45;15.20;51.50
20487;DHT22;10402;49.012;8.370;2023-04-15T13:40:11;15.10;51.70
20487;DHT22;10402;49.012;8.370;2023-04-15T13:42:36;15.00;51.50
20487;DHT22;10402;49.012;8.370;2023-04-15T13:45:02;14.90;51.50
20487;DHT22;10402;49.012;8.370;2023-04-15T13:47:28;14.90;51.90
20487;DHT22;10402;49.012;8.370;2023-04-15T13:49:53;14.80;52.00
20487;DHT22;10402;49.012;8.370;2023-04-15T13:52:21;14.80;52.10
20487;DHT22;10402;49.012;8.370;2023-04-15T13:54:46;14.70;52.00
20487;DHT22;10402;49.012;8.370;2023-04-15T13:57:12;14.70;52.20
20487;DHT22;10402;49.012;8.370;2023-04-15T13:59:38;14.70;52.50
20487;DHT22;10402;49.012;8.370;2023-04-15T14:02:03;14.70;52.60
20487;DHT22;10402;49.012;8.370;2023-04-15T14:04:30;14.60;52.70
20487;DHT22;10402;49.012;8.370;2023-04-15T14:06:56;14.60;52.90
20487;DHT22;10402;49.012;8.370;2023-04-15T14:09:21;14.60;52.90
20487;DHT22;10402;49.012;8.370;2023-04-15T14:11:48;14.60;53.00
20487;DHT22;10402;49.012;8.370;2023-04-15T14:14:14;14.50;53.00
20487;DHT22;10402;49.012;8.370;2023-04-15T14:16:40;14.50;52.90
20487;DHT22;10402;49.012;8.370;2023-04-15T14:19:05;14.40;53.00
20487;DHT22;10402;49.012;8.370;2023-04-15T14:21:31;14.40;53.10
20487;DHT22;10402;49.012;8.370;2023-04-15T14:23:57;14.40;53.40
20487;DHT22;10402;49.012;8.370;2023-04-15T14:26:23;14.40;53.40
20487;DHT22;10402;49.012;8.370;2023-04-15T14:28:48;14.30;53.10
20487;DHT22;10402;49.012;8.370;2023-04-15T14:31:14;14.40;53.30
20487;DHT22;10402;49.012;8.370;2023-04-15T14:33:40;14.40;53.10
20487;DHT22;10402;49.012;8.370;2023-04-15T14:36:06;14.30;52.70
20487;DHT22;10402;49.012;8.370;2023-04-15T14:38:35;14.30;52.60
20487;DHT22;10402;49.012;8.370;2023-04-15T14:41:03;14.30;52.60
20487;DHT22;10402;49.012;8.370;2023-04-15T14:43:29;14.30;52.30
20487;DHT22;10402;49.012;8.370;2023-04-15T14:45:54;14.30;52.20
20487;DHT22;10402;49.012;8.370;2023-04-15T14:48:20;14.30;52.00
20487;DHT22;10402;49.012;8.370;2023-04-15T14:50:46;14.30;52.00
20487;DHT22;10402;49.012;8.370;2023-04-15T14:53:11;14.30;51.90
20487;DHT22;10402;49.012;8.370;2023-04-15T14:55:37;14.30;51.60
20487;DHT22;10402;49.012;8.370;2023-04-15T14:58:02;14.30;51.70
20487;DHT22;10402;49.012;8.370;2023-04-15T15:00:28;14.30;51.60
20487;DHT22;10402;49.012;8.370;2023-04-15T15:02:54;14.30;51.30
20487;DHT22;10402;49.012;8.370;2023-04-15T15:05:20;14.40;51.50
20487;DHT22;10402;49.012;8.370;2023-04-15T15:07:46;14.30;51.40
20487;DHT22;10402;49.012;8.370;2023-04-15T15:10:11;14.30;51.40
20487;DHT22;10402;49.012;8.370;2023-04-15T15:12:37;14.30;51.60
20487;DHT22;10402;49.012;8.370;2023-04-15T15:15:03;14.30;51.40
20487;DHT22;10402;49.012;8.370;2023-04-15T15:17:29;14.30;51.00
20487;DHT22;10402;49.012;8.370;2023-04-15T15:19:55;14.30;51.00
20487;DHT22;10402;49.012;8.370;2023-04-15T15:22:21;14.30;50.70
20487;DHT22;10402;49.012;8.370;2023-04-15T15:24:46;14.30;50.80
20487;DHT22;10402;49.012;8.370;2023-04-15T15:27:12;14.30;50.80
20487;DHT22;10402;49.012;8.370;2023-04-15T15:29:37;14.30;50.60
20487;DHT22;10402;49.012;8.370;2023-04-15T15:32:03;14.30;50.70
20487;DHT22;10402;49.012;8.370;2023-04-15T15:34:29;14.40;50.50
20487;DHT22;10402;49.012;8.370;2023-04-15T15:36:54;14.40;50.60
20487;DHT22;10402;49.012;8.370;2023-04-15T15:39:22;14.30;50.50
20487;DHT22;10402;49.012;8.370;2023-04-15T15:41:48;14.40;51.40